Terminal Aerodrome Forecast
Issued by NWS Flagstaff, AZ

Current Version | Previous Version | Text Only | Print | Product List | Glossary On
Versions: 1 2 3 4 5 6 7 8 9 10 11 12 13 14 15 16 17 18 19 20 21 22
000
FTUS45 KFGZ 291740
TAFFLG
TAF
KFLG 291740Z 2918/3018 17008KT P6SM VCSH SCT025 BKN035 OVC060
      TEMPO 2919/2920 4SM TSRA BKN015CB
     FM292000 19010KT P6SM VCSH BKN025 OVC050
      TEMPO 2920/2924 5SM SHRA BKN020
     FM300300 VRB05KT P6SM SCT025 BKN050=

USA.gov is the U.S. government's official web portal to all federal, state and local government web resources and services.